Time;durP1;ratioP1;P1;durP2;ratioP2;P2;SDS_P1;SDS_P2;PMS_P1;PMS_P2;Temp;Humidity;BMP_temperature;BMP_pressure;BME280_temperature;BME280_humidity;BME280_pressure;Samples;Min_cycle;Max_cycle;Signal;HPM_P1;HPM_P2
2023/01/08 00:02:00;;;;;;;171.48;66.60;;;128.90;2252.80;;;;;;5034534;28;20075;-81
2023/01/08 00:04:26;;;;;;;;;;;128.90;2252.80;;;;;;5035683;28;20087;-79
2023/01/08 00:06:52;;;;;;;147.25;57.47;;;128.90;2252.80;;;;;;5052340;28;20325;-79
2023/01/08 00:09:17;;;;;;;;;;;128.70;2252.80;;;;;;5035290;28;20086;-79
2023/01/08 00:11:43;;;;;;;131.70;55.63;;;128.80;2252.80;;;;;;5033686;28;19912;-79
2023/01/08 00:14:09;;;;;;;;;;;153.60;2252.80;;;;;;5035516;28;20033;-79
2023/01/08 00:16:35;;;;;;;179.40;73.53;;;153.70;2252.80;;;;;;5034235;28;19916;-78
2023/01/08 00:19:01;;;;;;;;;;;153.80;2252.80;;;;;;5033829;28;20021;-78
2023/01/08 00:21:27;;;;;;;159.18;70.90;;;154.00;2252.80;;;;;;5033512;28;19908;-79
2023/01/08 00:23:53;;;;;;;170.88;80.28;;;154.00;2252.80;;;;;;5034909;28;20491;-79
2023/01/08 00:26:19;;;;;;;;;;;154.10;2252.80;;;;;;5034531;28;20096;-79
2023/01/08 00:28:44;;;;;;;134.40;69.45;;;154.10;2252.80;;;;;;5034547;28;19916;-79
2023/01/08 00:31:11;;;;;;;;;;;154.20;2252.80;;;;;;5034374;28;20040;-79
2023/01/08 00:33:38;;;;;;;141.32;63.00;;;154.20;2252.80;;;;;;5034250;28;19923;-79
2023/01/08 00:36:15;;;;;;;117.15;61.08;;;154.20;2252.80;;;;;;5034810;28;20041;-79
2023/01/08 00:38:43;;;;;;;111.30;56.58;;;154.20;2252.80;;;;;;5034920;28;20029;-79
2023/01/08 00:41:10;;;;;;;115.55;57.38;;;154.20;2252.80;;;;;;5033956;28;20037;-79
2023/01/08 00:43:35;;;;;;;122.55;59.67;;;154.20;2252.80;;;;;;5034250;28;20031;-79
2023/01/08 00:46:01;;;;;;;;;;;154.20;2252.80;;;;;;5034588;28;20534;-78
2023/01/08 00:48:27;;;;;;;116.57;56.78;;;154.20;2252.80;;;;;;5034123;28;19909;-78
2023/01/08 00:50:52;;;;;;;;;;;154.20;2252.80;;;;;;5034483;28;20024;-79
2023/01/08 00:53:20;;;;;;;126.82;57.45;;;154.20;2252.80;;;;;;5033743;28;19956;-79
2023/01/08 00:55:46;;;;;;;106.55;57.00;;;154.10;2252.80;;;;;;5034256;28;20040;-78
2023/01/08 00:58:12;;;;;;;117.93;55.35;;;154.10;2252.80;;;;;;5033694;28;20025;-78
2023/01/08 01:00:38;;;;;;;95.88;48.10;;;154.10;2252.80;;;;;;5034443;28;21192;-78
2023/01/08 01:03:03;;;;;;;;;;;154.00;2252.80;;;;;;5034515;28;20070;-79
2023/01/08 01:05:29;;;;;;;92.95;42.15;;;154.00;2252.80;;;;;;5036587;28;19908;-78
2023/01/08 01:07:55;;;;;;;;;;;153.90;2252.80;;;;;;5037568;28;20036;-78
2023/01/08 01:10:22;;;;;;;71.00;33.53;;;153.90;2252.80;;;;;;5038214;28;19920;-78
2023/01/08 01:12:48;;;;;;;89.78;41.80;;;153.90;2252.80;;;;;;5037536;28;20275;-77
2023/01/08 01:15:14;;;;;;;;;;;153.90;2252.80;;;;;;5037677;28;20047;-77
2023/01/08 01:17:42;;;;;;;115.65;36.35;;;153.90;2252.80;;;;;;5055272;28;20183;-78
2023/01/08 01:20:15;;;;;;;137.65;47.38;;;153.90;2252.80;;;;;;5040065;28;20116;-78
2023/01/08 01:22:41;;;;;;;160.00;44.60;;;153.70;2252.80;;;;;;5037871;28;20478;-76
2023/01/08 01:25:08;;;;;;;134.65;45.95;;;153.60;2252.80;;;;;;5037547;28;20479;-76
2023/01/08 01:27:34;;;;;;;191.93;51.17;;;128.80;2252.80;;;;;;5037310;28;20033;-77
2023/01/08 01:30:00;;;;;;;;;;;128.60;2252.80;;;;;;5056239;28;20032;-78
2023/01/08 01:32:26;;;;;;;105.97;44.65;;;128.60;2252.80;;;;;;5055706;28;19915;-78
2023/01/08 01:34:51;;;;;;;;;;;128.80;2252.80;;;;;;5038138;28;20063;-78
2023/01/08 01:37:17;;;;;;;102.35;49.10;;;128.90;2252.80;;;;;;5037362;28;20401;-78
2023/01/08 01:39:42;;;;;;;;;;;128.90;2252.80;;;;;;5037248;28;20392;-77
2023/01/08 01:45:30;;;;;;;86.78;45.13;;;128.90;2252.80;;;;;;5052884;28;21553;-78
2023/01/08 01:48:02;;;;;;;78.85;46.03;;;153.60;2252.80;;;;;;4974574;28;20034;-78
2023/01/08 01:50:30;;;;;;;100.43;49.25;;;153.60;2252.80;;;;;;4958332;28;20034;-78
2023/01/08 01:53:15;;;;;;;127.43;58.95;;;153.70;2252.80;;;;;;4974126;28;20039;-77
2023/01/08 01:55:42;;;;;;;128.90;53.92;;;153.70;2252.80;;;;;;4970209;28;22101;-77
2023/01/08 01:58:14;;;;;;;122.68;49.42;;;153.60;2252.80;;;;;;4958192;28;20031;-77
2023/01/08 02:00:41;;;;;;;147.93;48.53;;;153.70;2252.80;;;;;;4974612;28;20470;-78
2023/01/08 02:03:09;;;;;;;147.70;46.80;;;153.60;2252.80;;;;;;4958261;28;20448;-77
2023/01/08 02:05:55;;;;;;;169.68;47.70;;;153.70;2252.80;;;;;;4958018;28;20043;-77
2023/01/08 02:08:33;;;;;;;117.88;46.80;;;153.60;2252.80;;;;;;4972885;28;20401;-78
2023/01/08 02:11:20;;;;;;;194.45;46.75;;;153.70;2252.80;;;;;;4973116;28;20481;-78
2023/01/08 02:14:10;;;;;;;202.40;41.28;;;153.60;2252.80;;;;;;4974430;28;20504;-77
2023/01/08 02:16:56;;;;;;;138.18;44.80;;;128.90;2252.80;;;;;;4956853;28;20107;-78
2023/01/08 02:19:50;;;;;;;129.70;43.80;;;128.90;2252.80;;;;;;4973825;28;20441;-78
2023/01/08 02:22:33;;;;;;;157.43;47.88;;;128.90;2252.80;;;;;;4955834;28;20030;-77
2023/01/08 02:25:29;;;;;;;188.35;45.78;;;128.80;2252.80;;;;;;5017532;28;20032;-78
2023/01/08 02:27:58;;;;;;;231.30;49.65;;;128.70;2252.80;;;;;;5053845;28;20522;-77
2023/01/08 02:30:24;;;;;;;149.63;45.40;;;128.60;2252.80;;;;;;5054147;28;20074;-77
2023/01/08 02:32:49;;;;;;;;;;;128.60;2252.80;;;;;;5036644;28;20024;-77
2023/01/08 02:35:15;;;;;;;94.53;41.30;;;128.70;2252.80;;;;;;5036281;28;19909;-78
2023/01/08 02:37:41;;;;;;;;;;;128.60;2252.80;;;;;;5054267;28;20124;-77
2023/01/08 02:40:19;;;;;;;133.13;40.38;;;128.30;2252.80;;;;;;5037530;28;19904;-78
2023/01/08 02:43:05;;;;;;;110.30;41.45;;;128.40;2252.80;;;;;;5037039;28;20083;-78
2023/01/08 02:45:45;;;;;;;82.38;40.33;;;128.60;2252.80;;;;;;5035027;28;20109;-78
2023/01/08 02:48:19;;;;;;;98.30;43.90;;;128.80;2252.80;;;;;;5018983;28;20083;-77
2023/01/08 02:51:06;;;;;;;128.00;42.28;;;128.90;2252.80;;;;;;5036848;28;20530;-78
2023/01/08 02:53:36;;;;;;;132.35;36.05;;;128.90;2252.80;;;;;;5054607;28;20052;-77
2023/01/08 02:56:13;;;;;;;228.13;48.60;;;153.60;2252.80;;;;;;5036767;28;20041;-78
2023/01/08 02:58:40;;;;;;;124.57;41.22;;;128.80;2252.80;;;;;;5054429;28;20025;-78
2023/01/08 03:01:09;;;;;;;116.20;41.15;;;128.80;2252.80;;;;;;5036631;28;20025;-78
2023/01/08 03:03:38;;;;;;;94.65;40.75;;;128.90;2252.80;;;;;;5036760;28;20045;-78
2023/01/08 03:06:07;;;;;;;129.93;41.58;;;128.70;2252.80;;;;;;5036631;28;20036;-78
2023/01/08 03:08:37;;;;;;;132.27;43.30;;;128.70;2252.80;;;;;;5054155;28;20424;-78
2023/01/08 03:11:11;;;;;;;95.18;40.55;;;128.50;2252.80;;;;;;5036420;28;20115;-77
2023/01/08 03:13:43;;;;;;;76.90;38.33;;;128.20;2252.80;;;;;;5036321;28;20059;-77
2023/01/08 03:16:15;;;;;;;69.50;38.17;;;103.30;2227.20;;;;;;5036129;28;20025;-78
2023/01/08 03:18:47;;;;;;;103.40;40.72;;;103.10;2227.20;;;;;;5054217;28;20882;-77
2023/01/08 03:21:16;;;;;;;55.97;34.83;;;102.80;2227.20;;;;;;5036364;28;20568;-77
2023/01/08 03:23:45;;;;;;;51.95;34.92;;;102.60;2227.20;;;;;;5053786;28;20017;-78
2023/01/08 03:26:16;;;;;;;59.58;33.42;;;102.60;2227.20;;;;;;5036210;28;20032;-77
2023/01/08 03:28:45;;;;;;;57.72;32.78;;;102.60;2227.20;;;;;;5035703;28;20048;-77
2023/01/08 03:31:15;;;;;;;73.57;33.28;;;102.70;2227.20;;;;;;5036487;28;20055;-78
2023/01/08 03:33:43;;;;;;;97.18;38.22;;;102.70;2227.20;;;;;;5036101;28;20037;-78
2023/01/08 03:36:15;;;;;;;100.03;38.67;;;102.60;2227.20;;;;;;5036215;28;20025;-78
2023/01/08 03:39:13;;;;;;;113.55;39.25;;;102.70;2227.20;;;;;;5023411;28;20064;-77
2023/01/08 03:41:39;;;;;;;133.57;39.50;;;102.80;2227.20;;;;;;4939396;29;20039;-78
2023/01/08 03:44:04;;;;;;;;;;;102.60;2227.20;;;;;;4938359;29;20436;-78
2023/01/08 03:46:41;;;;;;;60.22;33.65;;;102.80;2227.20;;;;;;4937478;29;19910;-79
2023/01/08 03:49:07;;;;;;;53.28;28.98;;;103.00;2227.20;;;;;;4925642;29;20035;-77
2023/01/08 03:51:44;;;;;;;74.90;41.63;;;103.10;2227.20;;;;;;4953456;29;20106;-78
2023/01/08 03:54:30;;;;;;;86.20;44.13;;;103.20;2227.20;;;;;;4937708;29;20043;-78
2023/01/08 03:56:55;;;;;;;89.57;45.50;;;103.30;2227.20;;;;;;4937492;29;20053;-78
2023/01/08 03:59:21;;;;;;;;;;;128.00;2252.80;;;;;;4937748;29;20039;-78
2023/01/08 04:01:47;;;;;;;100.40;47.00;;;128.10;2252.80;;;;;;4953471;29;19906;-78
2023/01/08 04:04:12;;;;;;;;;;;128.20;2252.80;;;;;;4937348;29;20127;-77
2023/01/08 04:06:38;;;;;;;89.68;45.20;;;128.20;2252.80;;;;;;4953454;29;19913;-77
2023/01/08 04:09:04;;;;;;;;;;;128.30;2252.80;;;;;;4937298;29;20034;-77
2023/01/08 04:11:30;;;;;;;115.85;43.67;;;128.30;2252.80;;;;;;4943965;29;19918;-78
2023/01/08 04:13:56;;;;;;;;;;;128.20;2252.80;;;;;;4937084;29;20130;-77
2023/01/08 04:16:22;;;;;;;104.50;45.55;;;128.00;2252.80;;;;;;4937062;29;20080;-76
2023/01/08 04:18:48;;;;;;;126.60;51.58;;;103.30;2227.20;;;;;;4986344;28;20025;-77
2023/01/08 04:21:13;;;;;;;;;;;128.00;2252.80;;;;;;5035559;28;20035;-76
2023/01/08 04:23:39;;;;;;;93.43;49.13;;;103.20;2227.20;;;;;;5034918;28;19995;-77
2023/01/08 04:26:05;;;;;;;;;;;103.20;2227.20;;;;;;5035915;28;20028;-76
2023/01/08 04:28:31;;;;;;;94.68;50.33;;;103.10;2227.20;;;;;;5052789;28;19909;-77
2023/01/08 04:30:56;;;;;;;;;;;102.90;2227.20;;;;;;5035735;28;20031;-77
2023/01/08 04:33:22;;;;;;;91.80;50.13;;;102.60;2227.20;;;;;;5053182;28;19912;-78
2023/01/08 04:35:48;;;;;;;;;;;102.50;2227.20;;;;;;5035454;28;20425;-78
2023/01/08 04:38:13;;;;;;;85.97;48.58;;;102.40;2227.20;;;;;;5035020;28;19905;-79
2023/01/08 04:40:39;;;;;;;;;;;77.70;2227.20;;;;;;5055583;28;20135;-78
2023/01/08 04:43:05;;;;;;;103.30;52.20;;;102.60;2227.20;;;;;;5039315;28;20351;-78
2023/01/08 04:45:30;;;;;;;;;;;102.60;2227.20;;;;;;5039884;28;20025;-78
2023/01/08 04:47:59;;;;;;;105.65;49.35;;;102.80;2227.20;;;;;;5039159;28;19912;-79
2023/01/08 04:50:25;;;;;;;119.68;50.28;;;102.60;2227.20;;;;;;5038369;28;20033;-78
2023/01/08 04:52:51;;;;;;;107.25;51.13;;;102.50;2227.20;;;;;;5038837;28;20542;-78
2023/01/08 04:55:17;;;;;;;;;;;102.40;2227.20;;;;;;5039437;28;20124;-78
2023/01/08 04:57:43;;;;;;;128.95;54.20;;;77.70;2227.20;;;;;;5056481;28;19939;-77
2023/01/08 05:00:09;;;;;;;109.47;51.25;;;77.50;2227.20;;;;;;5039109;28;20052;-78
2023/01/08 05:02:35;;;;;;;143.27;55.47;;;77.40;2227.20;;;;;;5038051;28;20033;-78
2023/01/08 05:05:01;;;;;;;;;;;77.30;2227.20;;;;;;5038979;28;20507;-78
2023/01/08 05:07:27;;;;;;;125.90;53.78;;;77.30;2227.20;;;;;;5038337;28;19944;-78
2023/01/08 05:09:52;;;;;;;;;;;77.40;2227.20;;;;;;5038789;28;20078;-78
2023/01/08 05:12:18;;;;;;;124.50;54.20;;;77.30;2227.20;;;;;;5056250;28;19909;-77
2023/01/08 05:14:45;;;;;;;97.38;54.50;;;77.40;2227.20;;;;;;5056453;28;20394;-77
2023/01/08 05:17:11;;;;;;;110.35;55.65;;;77.40;2227.20;;;;;;5038231;28;20529;-78
2023/01/08 05:19:36;;;;;;;;;;;77.40;2227.20;;;;;;5038953;28;20025;-77
2023/01/08 05:22:02;;;;;;;86.18;48.53;;;77.30;2227.20;;;;;;5038431;28;19904;-77
2023/01/08 05:24:27;;;;;;;;;;;77.20;2227.20;;;;;;5038385;28;20367;-77
2023/01/08 05:26:53;;;;;;;88.28;51.08;;;77.10;2227.20;;;;;;5037700;28;19911;-77
2023/01/08 05:29:19;;;;;;;;;;;77.20;2227.20;;;;;;5038810;28;20112;-77
2023/01/08 05:31:45;;;;;;;96.82;53.60;;;77.20;2227.20;;;;;;5038385;28;20318;-77
2023/01/08 05:34:11;;;;;;;100.30;53.28;;;77.50;2227.20;;;;;;5038240;28;20044;-78
2023/01/08 05:36:36;;;;;;;;;;;77.50;2227.20;;;;;;5038642;28;20021;-77
2023/01/08 05:39:03;;;;;;;91.28;51.20;;;77.40;2227.20;;;;;;5038193;28;19909;-78
2023/01/08 05:41:28;;;;;;;94.45;52.70;;;77.30;2227.20;;;;;;5038102;28;20033;-78
2023/01/08 05:43:54;;;;;;;;;;;77.40;2227.20;;;;;;5038686;28;20091;-77
2023/01/08 05:46:20;;;;;;;103.68;50.75;;;77.30;2227.20;;;;;;5037807;28;19905;-78
2023/01/08 05:48:45;;;;;;;;;;;77.30;2227.20;;;;;;5038657;28;20079;-77
2023/01/08 05:51:11;;;;;;;98.25;49.00;;;77.30;2227.20;;;;;;5038039;28;19916;-78
2023/01/08 05:53:37;;;;;;;;;;;77.30;2227.20;;;;;;5038294;28;20483;-78
2023/01/08 05:56:07;;;;;;;131.35;52.40;;;77.40;2227.20;;;;;;5037464;28;19916;-78
2023/01/08 05:58:33;;;;;;;139.85;57.92;;;77.50;2227.20;;;;;;5037845;28;20112;-77
2023/01/08 06:01:06;;;;;;;;;;;77.40;2227.20;;;;;;5056107;28;20097;-79
2023/01/08 06:03:32;;;;;;;120.55;58.40;;;77.50;2227.20;;;;;;5037830;28;20015;-78
2023/01/08 06:05:58;;;;;;;;;;;77.50;2227.20;;;;;;5056067;28;20101;-78
2023/01/08 06:08:24;;;;;;;111.88;50.00;;;77.60;2227.20;;;;;;5037819;28;19917;-77
2023/01/08 06:10:50;;;;;;;;;;;77.40;2227.20;;;;;;5037906;28;20036;-77
2023/01/08 06:13:15;;;;;;;179.57;65.35;;;77.50;2227.20;;;;;;5054905;28;19963;-75
2023/01/08 06:15:41;;;;;;;;;;;77.70;2227.20;;;;;;5037855;28;20510;-76
2023/01/08 06:18:07;;;;;;;219.30;68.80;;;77.60;1945.60;;;;;;5037173;28;20043;-76
2023/01/08 06:20:32;;;;;;;;;;;77.70;2227.20;;;;;;5037593;28;20025;-76
2023/01/08 06:22:58;;;;;;;197.95;64.63;;;77.70;2227.20;;;;;;5054836;28;19987;-76
2023/01/08 06:25:24;;;;;;;;;;;102.50;2227.20;;;;;;5055239;28;20023;-76
2023/01/08 06:27:50;;;;;;;172.15;65.68;;;102.60;2227.20;;;;;;5037009;28;19993;-76
2023/01/08 06:30:16;;;;;;;173.18;67.05;;;102.80;2227.20;;;;;;5054402;28;20100;-76
2023/01/08 06:32:42;;;;;;;;;;;102.70;2227.20;;;;;;5037375;28;20116;-75
2023/01/08 06:35:08;;;;;;;156.82;63.67;;;102.60;2227.20;;;;;;5052570;28;19923;-76
2023/01/08 06:37:34;;;;;;;165.25;67.60;;;102.60;2227.20;;;;;;5053647;28;20048;-76
2023/01/08 06:39:59;;;;;;;;;;;102.60;2227.20;;;;;;5036541;28;20118;-76
2023/01/08 06:42:25;;;;;;;149.57;65.43;;;102.70;2227.20;;;;;;5054177;28;19920;-76
2023/01/08 06:44:51;;;;;;;;;;;102.60;2227.20;;;;;;5036573;28;20028;-76
2023/01/08 06:47:16;;;;;;;134.70;65.75;;;102.60;2227.20;;;;;;5054386;28;19904;-76
2023/01/08 06:49:42;;;;;;;;;;;102.60;2227.20;;;;;;5036869;28;20028;-77
2023/01/08 06:52:08;;;;;;;144.82;68.40;;;102.80;2227.20;;;;;;5036266;28;20007;-79
2023/01/08 06:54:33;;;;;;;;;;;102.90;2227.20;;;;;;5054941;28;20033;-79
2023/01/08 06:56:59;;;;;;;127.88;66.07;;;103.10;2227.20;;;;;;5053961;28;20367;-79
2023/01/08 06:59:25;;;;;;;;;;;103.30;2227.20;;;;;;5054073;28;20033;-78
2023/01/08 07:01:50;;;;;;;126.43;65.25;;;103.30;2227.20;;;;;;5035311;28;19909;-76
2023/01/08 07:04:16;;;;;;;;;;;103.10;2227.20;;;;;;5053893;28;20087;-76
2023/01/08 07:06:42;;;;;;;126.38;66.28;;;103.20;2227.20;;;;;;5053466;28;19912;-76
2023/01/08 07:09:11;;;;;;;;;;;103.20;2227.20;;;;;;5054336;28;20036;-80
2023/01/08 07:11:37;;;;;;;117.57;66.45;;;103.10;2227.20;;;;;;5054027;28;19978;-82
2023/01/08 07:14:02;;;;;;;;;;;103.20;2227.20;;;;;;5037114;28;20474;-76
2023/01/08 07:16:28;;;;;;;122.47;66.22;;;103.10;2227.20;;;;;;5035055;28;19916;-76
2023/01/08 07:18:53;;;;;;;;;;;103.10;2227.20;;;;;;5035766;28;20383;-78
2023/01/08 07:21:21;;;;;;;122.30;66.03;;;103.10;2227.20;;;;;;5035083;28;19908;-74
2023/01/08 07:23:50;;;;;;;122.97;67.68;;;103.10;2227.20;;;;;;5053185;28;20593;-77
2023/01/08 07:26:16;;;;;;;120.38;67.63;;;103.10;2227.20;;;;;;5034651;28;20033;-76
2023/01/08 07:28:43;;;;;;;126.03;68.03;;;103.20;2227.20;;;;;;5035130;28;20112;-74
2023/01/08 07:31:09;;;;;;;120.82;65.38;;;103.20;2227.20;;;;;;5053029;28;20159;-73
2023/01/08 07:33:34;;;;;;;;;;;103.30;2227.20;;;;;;5031468;28;20500;-75
2023/01/08 07:36:01;;;;;;;112.05;60.80;;;128.00;2252.80;;;;;;5053040;28;20457;-75
2023/01/08 07:38:27;;;;;;;117.13;64.57;;;128.10;2252.80;;;;;;5052795;28;20044;-77
2023/01/08 07:40:52;;;;;;;;;;;128.20;2252.80;;;;;;5053639;28;20493;-78
2023/01/08 07:43:18;;;;;;;101.72;56.33;;;128.20;2252.80;;;;;;5053219;28;19994;-77
2023/01/08 07:45:44;;;;;;;;;;;128.20;2252.80;;;;;;5035522;28;20025;-79
2023/01/08 07:48:14;;;;;;;82.47;48.58;;;128.30;2252.80;;;;;;5034736;28;19936;-79
2023/01/08 07:50:40;;;;;;;88.32;51.25;;;128.40;2252.80;;;;;;5052778;28;20035;-78
2023/01/08 07:53:06;;;;;;;;;;;128.50;2252.80;;;;;;5047065;28;20123;-78
2023/01/08 07:55:31;;;;;;;83.72;47.65;;;128.70;2252.80;;;;;;5034682;28;19958;-78
2023/01/08 07:57:57;;;;;;;;;;;128.70;2252.80;;;;;;5034948;28;20094;-81
2023/01/08 08:00:23;;;;;;;86.18;48.97;;;128.80;2252.80;;;;;;5034877;28;20313;-77
2023/01/08 08:02:48;;;;;;;;;;;128.80;2252.80;;;;;;5035665;28;20418;-80
2023/01/08 08:05:14;;;;;;;92.13;49.58;;;128.90;2252.80;;;;;;5044827;28;19915;-78
2023/01/08 08:07:39;;;;;;;;;;;128.70;2252.80;;;;;;5033923;28;20033;-80
2023/01/08 08:10:06;;;;;;;88.65;49.85;;;128.90;2048.00;;;;;;5028022;28;19955;-84
2023/01/08 08:12:31;;;;;;;91.90;51.05;;;128.90;2150.40;;;;;;5029644;28;20076;-77
2023/01/08 08:14:57;;;;;;;;;;;128.90;1971.20;;;;;;5034299;28;20088;-80
2023/01/08 08:17:23;;;;;;;85.18;47.60;;;153.60;2252.80;;;;;;5033997;28;19905;-79
2023/01/08 08:19:48;;;;;;;;;;;153.70;2252.80;;;;;;5034064;28;20017;-79
2023/01/08 08:22:14;;;;;;;84.22;47.55;;;153.90;2252.80;;;;;;5028416;28;19909;-79
2023/01/08 08:24:40;;;;;;;;;;;154.00;2252.80;;;;;;5034166;28;20128;-77
2023/01/08 08:27:05;;;;;;;78.28;41.35;;;154.20;2073.60;;;;;;5034354;28;19909;-78
2023/01/08 08:29:31;;;;;;;;;;;154.30;2252.80;;;;;;5035299;28;20036;-81
2023/01/08 08:31:57;;;;;;;68.95;38.55;;;154.40;2252.80;;;;;;5034359;28;19909;-80
2023/01/08 08:34:25;;;;;;;;;;;154.50;2252.80;;;;;;5052635;28;20048;-81
2023/01/08 08:36:52;;;;;;;77.22;40.22;;;179.20;2252.80;;;;;;5053054;28;19909;-82
2023/01/08 08:39:18;;;;;;;74.20;43.45;;;179.30;2252.80;;;;;;5033607;28;20502;-80
2023/01/08 08:41:43;;;;;;;;;;;179.40;2252.80;;;;;;5052666;28;20087;-80
2023/01/08 08:44:09;;;;;;;77.60;42.28;;;179.50;2252.80;;;;;;5053133;28;19905;-82
2023/01/08 08:46:34;;;;;;;;;;;179.50;2252.80;;;;;;5035201;28;20117;-79
2023/01/08 08:49:00;;;;;;;76.20;43.92;;;179.60;2252.80;;;;;;5033938;28;19912;-78
2023/01/08 08:51:26;;;;;;;;;;;179.70;2252.80;;;;;;5026102;28;20044;-83
2023/01/08 08:53:52;;;;;;;79.97;44.45;;;179.80;2252.80;;;;;;5034016;28;19912;-78
2023/01/08 08:56:17;;;;;;;;;;;179.80;2252.80;;;;;;5030020;28;20609;-77
2023/01/08 08:58:44;;;;;;;82.28;46.50;;;180.00;2252.80;;;;;;5031104;28;20278;-76
2023/01/08 09:01:10;;;;;;;88.30;48.70;;;180.00;2252.80;;;;;;5031866;28;20029;-78
2023/01/08 09:03:35;;;;;;;;;;;180.10;2252.80;;;;;;5031746;28;20096;-77
2023/01/08 09:06:01;;;;;;;91.70;51.42;;;180.10;2252.80;;;;;;5032042;28;20358;-80
2023/01/08 09:08:27;;;;;;;;;;;204.80;2252.80;;;;;;5026058;28;20372;-80
2023/01/08 09:10:53;;;;;;;94.78;52.78;;;204.90;2252.80;;;;;;5014899;28;19909;-80
2023/01/08 09:13:18;;;;;;;;;;;205.00;2252.80;;;;;;5015858;28;20029;-78
2023/01/08 09:15:44;;;;;;;84.55;48.25;;;205.10;2252.80;;;;;;5026531;28;19951;-77
2023/01/08 09:18:10;;;;;;;;;;;205.20;2252.80;;;;;;5014033;28;20036;-77
2023/01/08 09:20:36;;;;;;;85.20;46.65;;;205.30;2252.80;;;;;;5012234;28;19909;-79
2023/01/08 09:23:02;;;;;;;;;;;205.40;2252.80;;;;;;5014466;28;20037;-79
2023/01/08 09:25:28;;;;;;;83.25;47.47;;;205.40;2252.80;;;;;;5033641;28;20115;-90
2023/01/08 09:28:12;;;;;;;81.28;46.50;;;205.40;2252.80;;;;;;5034334;28;20163;-78
2023/01/08 09:30:38;;;;;;;78.00;44.53;;;205.50;2252.80;;;;;;5034495;28;20025;-76
2023/01/08 09:33:05;;;;;;;73.45;42.38;;;205.60;2252.80;;;;;;5031858;28;20042;-78
2023/01/08 09:35:32;;;;;;;72.85;43.00;;;205.70;2252.80;;;;;;5027614;28;20056;-81
2023/01/08 09:37:58;;;;;;;80.18;44.15;;;205.70;2252.80;;;;;;5026847;28;20020;-76
2023/01/08 09:40:50;;;;;;;77.15;44.38;;;230.40;2252.80;;;;;;5038283;28;20967;-77
2023/01/08 09:43:21;;;;;;;73.57;42.10;;;230.50;2252.80;;;;;;5030219;28;20116;-77
2023/01/08 09:46:07;;;;;;;73.70;42.05;;;230.60;2252.80;;;;;;5032812;28;20037;-87
2023/01/08 09:48:37;;;;;;;64.25;37.13;;;230.70;2252.80;;;;;;5037015;28;20049;-80
2023/01/08 09:51:04;;;;;;;65.15;36.38;;;230.70;2252.80;;;;;;5004477;28;20033;-78
2023/01/08 09:53:31;;;;;;;73.25;37.72;;;230.70;2252.80;;;;;;5037611;28;20025;-81
2023/01/08 09:56:04;;;;;;;55.33;34.28;;;230.70;2252.80;;;;;;5026068;28;20046;-82
2023/01/08 09:58:42;;;;;;;50.55;34.20;;;230.90;2252.80;;;;;;4993190;28;20037;-79
2023/01/08 10:01:12;;;;;;;49.75;30.45;;;230.90;2252.80;;;;;;5017382;28;20498;-81
2023/01/08 10:03:45;;;;;;;53.47;31.27;;;231.10;2252.80;;;;;;5029535;28;20036;-78
2023/01/08 10:06:13;;;;;;;52.45;30.92;;;231.10;2252.80;;;;;;5010764;28;20037;-81
2023/01/08 10:08:39;;;;;;;45.35;26.35;;;231.20;2252.80;;;;;;5018283;28;20488;-80
2023/01/08 10:11:07;;;;;;;46.25;26.55;;;231.30;2252.80;;;;;;5013342;28;20112;-78
2023/01/08 10:13:35;;;;;;;41.85;25.30;;;256.00;2252.80;;;;;;4995480;28;20048;-81
2023/01/08 10:16:05;;;;;;;43.65;25.13;;;256.00;2252.80;;;;;;4999602;28;20025;-78
2023/01/08 10:18:33;;;;;;;42.88;26.08;;;256.00;2252.80;;;;;;5000883;28;20495;-80
2023/01/08 10:20:59;;;;;;;45.10;25.90;;;256.20;2252.80;;;;;;5005804;28;20156;-83
2023/01/08 10:23:24;;;;;;;42.72;24.65;;;256.20;2252.80;;;;;;4998894;28;20128;-86
2023/01/08 10:25:55;;;;;;;;;;;256.20;2252.80;;;;;;5015905;28;20022;-81
2023/01/08 10:28:24;;;;;;;39.55;25.05;;;256.30;2252.80;;;;;;4997339;28;19913;-83
2023/01/08 10:30:52;;;;;;;37.35;23.83;;;256.30;2252.80;;;;;;5019991;28;20075;-80
2023/01/08 10:33:20;;;;;;;37.25;23.00;;;256.40;2252.80;;;;;;4997903;28;20084;-88
2023/01/08 10:35:54;;;;;;;41.42;23.58;;;256.50;2252.80;;;;;;5004839;28;20033;-82
2023/01/08 10:38:29;;;;;;;40.25;23.95;;;256.60;2252.80;;;;;;4997299;28;20018;-81
2023/01/08 10:40:56;;;;;;;35.83;22.02;;;256.80;2252.80;;;;;;5015932;28;20036;-81
2023/01/08 10:43:35;;;;;;;42.45;24.92;;;256.90;2252.80;;;;;;5009227;28;20022;-80
2023/01/08 10:46:07;;;;;;;40.75;23.33;;;281.60;2278.40;;;;;;5008215;28;20044;-81
2023/01/08 10:48:57;;;;;;;36.75;23.50;;;281.70;2278.40;;;;;;5014834;28;20425;-79
2023/01/08 10:51:27;;;;;;;36.65;21.30;;;282.00;2278.40;;;;;;4954517;29;20414;-79
2023/01/08 10:53:55;;;;;;;40.35;21.10;;;282.30;2278.40;;;;;;4953720;29;20163;-79
2023/01/08 10:56:22;;;;;;;36.38;21.60;;;307.30;2304.00;;;;;;4962453;28;20053;-80
2023/01/08 10:58:49;;;;;;;37.88;22.50;;;307.20;2304.00;;;;;;4957222;28;20030;-79
2023/01/08 11:01:21;;;;;;;36.13;21.67;;;307.40;2304.00;;;;;;4966461;28;20058;-80
2023/01/08 11:04:05;;;;;;;38.28;21.92;;;307.60;2304.00;;;;;;4967959;28;20127;-78
2023/01/08 11:06:35;;;;;;;43.33;22.90;;;307.60;2304.00;;;;;;4957651;28;20122;-81
2023/01/08 11:09:05;;;;;;;37.20;21.67;;;308.10;2304.00;;;;;;4974514;28;20038;-80
2023/01/08 11:11:33;;;;;;;35.55;20.15;;;332.80;2329.60;;;;;;4956717;28;20088;-79
2023/01/08 11:14:02;;;;;;;33.08;21.63;;;332.80;2329.60;;;;;;4969945;28;20069;-78
2023/01/08 11:16:38;;;;;;;33.13;20.55;;;308.10;2304.00;;;;;;4953416;29;20032;-80
2023/01/08 11:19:21;;;;;;;37.30;21.55;;;307.60;2304.00;;;;;;4973185;28;20073;-83
2023/01/08 11:21:57;;;;;;;33.28;19.52;;;307.60;2304.00;;;;;;4959422;28;20122;-80
2023/01/08 11:24:37;;;;;;;40.63;21.23;;;307.60;2304.00;;;;;;4959168;28;20031;-84
2023/01/08 11:27:27;;;;;;;26.92;18.33;;;308.00;2304.00;;;;;;4965493;28;20030;-80
2023/01/08 11:29:55;;;;;;;29.90;18.70;;;308.00;2304.00;;;;;;5023168;28;20028;-83
2023/01/08 11:32:36;;;;;;;32.83;20.77;;;308.10;2304.00;;;;;;5011538;28;20053;-82
2023/01/08 11:35:04;;;;;;;36.33;20.77;;;332.80;2329.60;;;;;;5012814;28;20041;-78
2023/01/08 11:37:34;;;;;;;37.08;22.67;;;308.10;2304.00;;;;;;5011422;28;20045;-77
2023/01/08 11:40:00;;;;;;;32.67;19.98;;;332.90;2329.60;;;;;;5011638;28;20046;-77
2023/01/08 11:42:46;;;;;;;34.80;20.67;;;333.00;2329.60;;;;;;4999481;28;20172;-78
2023/01/08 11:45:32;;;;;;;32.60;21.27;;;333.00;2329.60;;;;;;5007446;28;20026;-76
2023/01/08 11:48:01;;;;;;;34.20;20.20;;;333.00;2329.60;;;;;;5017461;28;20271;-78
2023/01/08 11:50:57;;;;;;;33.88;19.55;;;333.10;2329.60;;;;;;5003510;28;20033;-80
2023/01/08 11:53:54;;;;;;;31.30;18.17;;;333.10;2329.60;;;;;;4992261;28;20392;-78
2023/01/08 11:56:45;;;;;;;33.75;18.58;;;333.00;2329.60;;;;;;4995770;28;20046;-79
2023/01/08 11:59:25;;;;;;;25.98;17.00;;;332.90;2329.60;;;;;;5032147;28;20104;-78
2023/01/08 12:02:18;;;;;;;26.92;17.40;;;332.80;2329.60;;;;;;5015253;28;20036;-80
2023/01/08 12:05:19;;;;;;;36.10;17.58;;;332.90;2329.60;;;;;;5014297;28;20041;-79
2023/01/08 12:08:16;;;;;;;27.55;16.67;;;332.90;2329.60;;;;;;4937083;29;20147;-79
2023/01/08 12:10:44;;;;;;;26.65;15.60;;;332.90;2329.60;;;;;;4953464;28;20047;-85
2023/01/08 12:13:40;;;;;;;27.52;15.65;;;308.10;2304.00;;;;;;4936001;29;20035;-77
2023/01/08 12:16:18;;;;;;;25.65;15.77;;;332.80;2329.60;;;;;;4953163;29;20034;-81
2023/01/08 12:18:58;;;;;;;25.80;16.25;;;308.10;2304.00;;;;;;4956541;28;20026;-79
2023/01/08 12:21:45;;;;;;;28.60;15.93;;;308.10;2304.00;;;;;;4956267;28;20035;-85
2023/01/08 12:24:25;;;;;;;25.40;15.35;;;307.90;2304.00;;;;;;4979218;28;20085;-88
2023/01/08 12:27:15;;;;;;;25.23;15.48;;;307.80;2304.00;;;;;;4970457;28;20038;-89
2023/01/08 12:29:52;;;;;;;22.83;14.80;;;307.80;2304.00;;;;;;4969294;28;20679;-85
2023/01/08 12:32:24;;;;;;;31.25;15.75;;;307.70;2304.00;;;;;;4975316;28;20035;-84
2023/01/08 12:34:59;;;;;;;24.60;14.85;;;307.80;2304.00;;;;;;4974081;28;20154;-81
2023/01/08 12:37:27;;;;;;;25.58;14.63;;;307.90;2304.00;;;;;;4961761;28;20400;-80